createdAt,value
2022-07-25T00:02:39.107Z,2.67
2022-07-25T00:06:00.994Z,2.70
2022-07-25T00:09:19.916Z,2.67
2022-07-25T00:12:53.985Z,2.70
2022-07-25T00:22:26.480Z,3.13
2022-07-25T00:25:47.673Z,3.30
2022-07-25T00:29:06.402Z,2.97
2022-07-25T00:32:43.340Z,2.87
2022-07-25T00:35:48.486Z,4.37
2022-07-25T00:39:21.630Z,3.20
2022-07-25T00:42:38.355Z,3.50
2022-07-25T00:46:13.691Z,3.27
2022-07-25T00:49:29.530Z,3.80
2022-07-25T00:53:00.531Z,3.30
2022-07-25T00:56:20.473Z,3.23
2022-07-25T00:59:54.445Z,3.23
2022-07-25T01:03:10.502Z,3.43
2022-07-25T01:06:45.686Z,3.23
2022-07-25T01:10:06.460Z,3.30
2022-07-25T01:13:37.625Z,3.87
2022-07-25T01:16:55.470Z,3.40
2022-07-25T01:20:16.634Z,3.80
2022-07-25T01:23:34.689Z,3.97
2022-07-25T01:27:07.574Z,3.57
2022-07-25T01:30:14.562Z,3.87
2022-07-25T01:33:45.627Z,3.75
2022-07-25T01:37:01.586Z,4.00
2022-07-25T01:40:38.982Z,3.70
2022-07-25T01:43:48.731Z,4.17
2022-07-25T01:47:10.714Z,4.27
2022-07-25T01:50:29.745Z,6.53
2022-07-25T01:53:51.645Z,4.43
2022-07-25T01:57:14.814Z,4.40
2022-07-25T02:00:43.643Z,4.30
2022-07-25T02:04:03.894Z,5.50
2022-07-25T02:07:23.711Z,4.07
2022-07-25T02:10:43.636Z,4.03
2022-07-25T02:14:07.361Z,4.33
2022-07-25T02:17:41.816Z,4.50
2022-07-25T02:21:02.936Z,4.40
2022-07-25T02:24:39.784Z,4.67
2022-07-25T02:27:43.928Z,5.00
2022-07-25T02:31:17.967Z,5.40
2022-07-25T02:34:34.894Z,4.60
2022-07-25T02:38:06.830Z,4.77
2022-07-25T02:41:23.915Z,4.50
2022-07-25T02:44:49.055Z,4.40
2022-07-25T02:48:06.873Z,4.70
2022-07-25T02:51:23.841Z,4.10
2022-07-25T02:54:27.892Z,5.70
2022-07-25T02:57:47.833Z,4.75
2022-07-25T03:01:03.935Z,4.30
2022-07-25T03:04:36.997Z,4.27
2022-07-25T03:07:53.041Z,5.27
2022-07-25T03:11:13.066Z,4.47
2022-07-25T03:14:17.947Z,4.80
2022-07-25T03:17:37.968Z,4.80
2022-07-25T03:20:57.901Z,5.73
2022-07-25T03:24:18.172Z,4.80
2022-07-25T03:27:46.969Z,5.13
2022-07-25T03:31:06.889Z,4.90
2022-07-25T03:34:13.863Z,5.30
2022-07-25T03:37:54.999Z,4.50
2022-07-25T03:41:13.916Z,6.10
2022-07-25T03:44:49.042Z,4.83
2022-07-25T03:47:53.999Z,6.67
2022-07-25T03:51:26.055Z,8.43
2022-07-25T03:54:46.039Z,4.90
2022-07-25T03:58:06.046Z,5.20
2022-07-25T04:01:16.157Z,7.67
2022-07-25T04:04:36.029Z,7.07
2022-07-25T04:07:42.068Z,6.60
2022-07-25T04:11:15.238Z,5.03
2022-07-25T04:14:31.544Z,5.40
2022-07-25T04:17:57.120Z,5.23
2022-07-25T04:21:02.024Z,5.57
2022-07-25T04:24:27.292Z,5.87
2022-07-25T04:27:47.033Z,5.10
2022-07-25T04:31:16.421Z,5.40
2022-07-25T04:34:26.270Z,5.60
2022-07-25T04:37:46.215Z,5.53
2022-07-25T04:41:02.247Z,5.37
2022-07-25T04:44:34.499Z,5.20
2022-07-25T04:47:53.251Z,7.43
2022-07-25T04:51:13.242Z,5.45
2022-07-25T04:54:20.288Z,5.17
2022-07-25T05:00:56.252Z,5.50
2022-07-25T05:07:37.335Z,6.30
2022-07-25T05:11:09.611Z,7.00
2022-07-25T05:14:14.387Z,6.37
2022-07-25T05:17:46.675Z,6.40
2022-07-25T05:20:55.493Z,4.95
2022-07-25T05:24:30.385Z,5.10
2022-07-25T05:27:35.528Z,5.43
2022-07-25T05:30:56.542Z,5.83
2022-07-25T05:34:03.906Z,5.80
2022-07-25T05:37:15.144Z,6.15
2022-07-25T05:43:53.565Z,5.60
2022-07-25T05:47:12.672Z,6.73
2022-07-25T05:50:18.645Z,5.33
2022-07-25T05:53:36.533Z,5.60
2022-07-25T05:56:55.585Z,5.40
2022-07-25T06:00:15.637Z,4.73
2022-07-25T06:03:53.494Z,5.80
2022-07-25T06:07:00.635Z,5.73
2022-07-25T06:10:32.655Z,7.20
2022-07-25T06:13:49.688Z,5.10
2022-07-25T06:17:07.733Z,5.90
2022-07-25T06:20:14.576Z,5.30
2022-07-25T06:23:43.928Z,5.30
2022-07-25T06:27:20.221Z,5.60
2022-07-25T06:30:51.726Z,4.57
2022-07-25T06:33:58.671Z,4.90
2022-07-25T06:37:30.637Z,5.07
2022-07-25T06:40:35.669Z,4.60
2022-07-25T06:43:56.912Z,5.80
2022-07-25T06:47:15.639Z,5.20
2022-07-25T06:50:44.791Z,5.20
2022-07-25T06:53:49.706Z,4.97
2022-07-25T06:57:12.769Z,5.17
2022-07-25T07:00:28.787Z,4.67
2022-07-25T07:07:22.811Z,4.57
2022-07-25T07:11:03.827Z,4.77
2022-07-25T07:14:10.657Z,4.70
2022-07-25T07:17:30.809Z,5.10
2022-07-25T07:20:37.719Z,4.70
2022-07-25T07:24:09.409Z,4.63
2022-07-25T07:27:14.787Z,5.80
2022-07-25T07:31:05.865Z,5.50
2022-07-25T07:33:43.128Z,5.45
2022-07-25T07:37:05.801Z,5.20
2022-07-25T07:40:22.781Z,5.20
2022-07-25T07:43:42.857Z,5.53
2022-07-25T07:46:47.866Z,4.73
2022-07-25T07:50:09.915Z,6.53
2022-07-25T07:53:25.954Z,5.10
2022-07-25T07:56:57.871Z,4.60
2022-07-25T08:00:16.979Z,5.07
2022-07-25T08:03:45.979Z,5.23
2022-07-25T08:06:50.171Z,6.00
2022-07-25T08:10:09.963Z,5.17
2022-07-25T08:13:33.880Z,5.60
2022-07-25T08:16:55.958Z,4.70
2022-07-25T08:20:20.657Z,5.75
2022-07-25T08:23:35.002Z,5.25
2022-07-25T12:00:16.705Z,1.65
2022-07-25T14:49:23.208Z,1.60
2022-07-25T15:26:01.189Z,2.10
2022-07-25T15:39:23.448Z,1.90
2022-07-25T15:42:43.232Z,2.35
2022-07-25T15:46:00.215Z,1.80
2022-07-25T15:49:29.332Z,1.73
2022-07-25T15:52:34.648Z,2.20
2022-07-25T15:59:18.357Z,1.80
2022-07-25T16:02:53.387Z,1.80
2022-07-25T16:06:27.614Z,1.70
2022-07-25T16:09:35.276Z,1.40
2022-07-25T16:13:05.389Z,1.90
2022-07-25T16:19:43.387Z,1.60
2022-07-25T16:23:03.417Z,2.05
2022-07-25T16:26:26.474Z,1.60
2022-07-25T16:29:31.346Z,1.60
2022-07-25T16:32:51.352Z,1.90
2022-07-25T16:39:29.431Z,1.80
2022-07-25T16:45:56.497Z,1.70
2022-07-25T16:49:29.646Z,1.90
2022-07-25T16:52:38.580Z,1.60
2022-07-25T16:56:07.588Z,1.43
2022-07-25T16:59:14.522Z,1.80
2022-07-25T17:02:53.747Z,1.30
2022-07-25T17:06:14.741Z,1.60
2022-07-25T17:12:40.562Z,1.40
2022-07-25T17:16:05.695Z,1.40
2022-07-25T17:19:25.532Z,1.60
2022-07-25T17:22:46.516Z,1.80
2022-07-25T17:26:02.602Z,1.30
2022-07-25T17:29:32.743Z,1.50
2022-07-25T17:32:48.578Z,1.50
2022-07-25T17:36:21.740Z,1.60
2022-07-25T17:39:40.618Z,1.50
2022-07-25T17:43:09.476Z,1.70
2022-07-25T17:46:34.852Z,1.40
2022-07-25T17:49:54.651Z,1.60
2022-07-25T17:53:14.755Z,1.40
2022-07-25T17:56:32.766Z,1.20
2022-07-25T17:59:36.914Z,1.30
2022-07-25T18:02:59.749Z,1.40
2022-07-25T18:06:29.672Z,0.90
2022-07-25T18:09:46.823Z,1.40
2022-07-25T18:13:15.698Z,1.30
2022-07-25T18:16:34.863Z,1.27
2022-07-25T18:19:56.801Z,1.10
2022-07-25T18:23:01.778Z,1.40
2022-07-25T18:26:35.088Z,1.20
2022-07-25T18:29:55.874Z,1.55
2022-07-25T18:33:17.135Z,1.20
2022-07-25T18:36:39.002Z,1.13
2022-07-25T18:40:23.934Z,1.20
2022-07-25T18:43:47.167Z,1.10
2022-07-25T18:47:18.802Z,1.20
2022-07-25T18:50:27.893Z,1.40
2022-07-25T18:54:05.224Z,1.30
2022-07-25T18:57:24.932Z,1.20
2022-07-25T19:00:57.952Z,1.47
2022-07-25T19:04:09.171Z,1.47
2022-07-25T19:07:44.670Z,1.40
2022-07-25T19:11:09.870Z,1.70
2022-07-25T19:14:41.960Z,1.23
2022-07-25T19:18:00.095Z,1.20
2022-07-25T19:25:16.614Z,1.50
2022-07-25T19:28:50.363Z,1.37
2022-07-25T19:32:11.671Z,1.20
2022-07-25T19:35:50.438Z,1.47
2022-07-25T19:39:01.930Z,1.40
2022-07-25T19:42:36.658Z,1.87
2022-07-25T19:46:00.069Z,1.10
2022-07-25T19:49:28.308Z,1.30
2022-07-25T19:52:47.473Z,1.30
2022-07-25T19:56:26.475Z,1.20
2022-07-25T19:59:35.165Z,1.30
2022-07-25T20:03:06.483Z,2.03
2022-07-25T20:06:43.118Z,1.60
2022-07-25T20:13:24.458Z,1.60
2022-07-25T20:16:56.346Z,1.33
2022-07-25T20:20:13.276Z,1.63
2022-07-25T20:23:42.801Z,1.17
2022-07-25T20:27:00.505Z,1.27
2022-07-25T20:30:35.183Z,1.60
2022-07-25T20:33:41.315Z,1.23
2022-07-25T20:37:01.505Z,1.50
2022-07-25T20:40:23.214Z,1.70
2022-07-25T20:43:58.441Z,1.30
2022-07-25T20:47:03.315Z,1.10
2022-07-25T20:50:24.266Z,2.10
2022-07-25T20:53:43.311Z,1.70
2022-07-25T20:57:15.565Z,1.50
2022-07-25T21:00:37.322Z,1.30
2022-07-25T21:03:58.416Z,1.60
2022-07-25T21:07:03.371Z,1.93
2022-07-25T21:10:36.492Z,1.50
2022-07-25T21:13:52.273Z,1.50
2022-07-25T21:17:29.288Z,1.60
2022-07-25T21:20:51.233Z,1.43
2022-07-25T21:24:23.405Z,1.85
2022-07-25T21:27:28.479Z,1.63
2022-07-25T21:31:02.709Z,1.70
2022-07-25T21:34:22.343Z,1.87
2022-07-25T21:37:53.304Z,2.10
2022-07-25T21:41:15.437Z,2.03
2022-07-25T21:44:49.794Z,1.90
2022-07-25T21:48:11.469Z,1.97
2022-07-25T21:51:49.564Z,2.13
2022-07-25T21:54:54.383Z,2.10
2022-07-25T21:58:14.510Z,1.80
2022-07-25T22:01:23.436Z,2.05
2022-07-25T22:04:43.478Z,2.00
2022-07-25T22:08:03.647Z,2.07
2022-07-25T22:11:42.459Z,1.60
2022-07-25T22:14:37.448Z,1.73
2022-07-25T22:18:06.579Z,1.80
2022-07-25T22:21:22.492Z,1.40
2022-07-25T22:25:00.569Z,2.00
2022-07-25T22:28:20.582Z,1.67
2022-07-25T22:31:43.140Z,1.87
2022-07-25T22:34:59.686Z,1.60
2022-07-25T22:38:21.608Z,1.57
2022-07-25T22:41:38.697Z,1.55
2022-07-25T22:45:07.604Z,1.93
2022-07-25T22:48:26.690Z,1.77
2022-07-25T22:51:57.629Z,2.20
2022-07-25T22:55:01.750Z,2.10
2022-07-25T22:58:33.743Z,1.45
2022-07-25T23:01:49.900Z,1.87
2022-07-25T23:05:27.624Z,1.63
2022-07-25T23:08:44.720Z,2.00
2022-07-25T23:12:19.632Z,2.37
2022-07-25T23:15:50.204Z,1.57
2022-07-25T23:18:59.717Z,1.50
2022-07-25T23:22:06.857Z,1.70
2022-07-25T23:25:37.832Z,1.40
2022-07-25T23:28:56.657Z,1.53
2022-07-25T23:32:29.690Z,1.93
2022-07-25T23:35:45.702Z,1.40
2022-07-25T23:39:08.126Z,1.63
2022-07-25T23:42:23.890Z,1.60
2022-07-25T23:45:52.817Z,1.60
2022-07-25T23:49:13.360Z,1.40
2022-07-25T23:52:33.768Z,1.40
2022-07-25T23:55:49.951Z,1.43
2022-07-25T23:59:19.747Z,1.53
